createdAt,value
2017-08-13T00:00:03.824Z,0
2017-08-13T00:01:03.504Z,0
2017-08-13T00:02:03.776Z,0
2017-08-13T00:03:03.757Z,0
2017-08-13T00:04:03.745Z,0
2017-08-13T00:05:03.715Z,0
2017-08-13T00:06:03.692Z,0
2017-08-13T00:07:03.686Z,0
2017-08-13T00:08:03.652Z,0
2017-08-13T00:09:03.635Z,0
2017-08-13T00:10:03.615Z,0
2017-08-13T00:11:03.590Z,0
2017-08-13T00:12:03.570Z,0
2017-08-13T00:13:03.249Z,0
2017-08-13T00:14:03.528Z,0
2017-08-13T00:15:03.498Z,0
2017-08-13T00:16:03.483Z,0
2017-08-13T00:17:03.475Z,0
2017-08-13T00:18:03.439Z,0
2017-08-13T00:19:03.414Z,0
2017-08-13T00:20:03.101Z,0
2017-08-13T00:21:03.379Z,0
2017-08-13T00:22:03.353Z,0
2017-08-13T00:23:03.040Z,0
2017-08-13T00:24:03.309Z,0
2017-08-13T00:25:03.002Z,0
2017-08-13T00:26:03.273Z,0
2017-08-13T00:27:02.958Z,0
2017-08-13T00:28:03.254Z,0
2017-08-13T00:29:02.916Z,0
2017-08-13T00:30:03.185Z,0
2017-08-13T00:31:03.166Z,0
2017-08-13T00:32:03.140Z,0
2017-08-13T00:33:03.124Z,0
2017-08-13T00:34:03.103Z,0
2017-08-13T00:35:03.085Z,0
2017-08-13T00:36:03.064Z,0
2017-08-13T00:37:02.739Z,0
2017-08-13T00:38:03.018Z,0
2017-08-13T00:39:03.001Z,0
2017-08-13T00:40:02.974Z,0
2017-08-13T00:41:02.964Z,0
2017-08-13T00:42:02.928Z,0
2017-08-13T00:43:02.908Z,0
2017-08-13T00:44:02.888Z,0
2017-08-13T00:45:02.870Z,0
2017-08-13T00:46:02.845Z,0
2017-08-13T00:47:02.831Z,0
2017-08-13T00:48:02.802Z,0
2017-08-13T00:49:02.788Z,0
2017-08-13T00:50:02.464Z,0
2017-08-13T00:51:02.739Z,0
2017-08-13T00:52:02.726Z,0
2017-08-13T00:53:02.701Z,0
2017-08-13T00:54:02.679Z,0
2017-08-13T00:55:02.657Z,0
2017-08-13T00:56:02.634Z,0
2017-08-13T00:57:02.610Z,0
2017-08-13T00:58:02.608Z,0
2017-08-13T00:59:02.277Z,0
2017-08-13T01:00:02.548Z,0
2017-08-13T01:01:02.527Z,0
2017-08-13T01:02:02.518Z,0
2017-08-13T01:03:02.195Z,0
2017-08-13T01:04:02.462Z,0
2017-08-13T01:05:02.445Z,0
2017-08-13T01:06:02.422Z,0
2017-08-13T01:07:02.396Z,0
2017-08-13T01:08:02.379Z,0
2017-08-13T01:09:02.358Z,0
2017-08-13T01:10:02.335Z,0
2017-08-13T01:11:02.319Z,0
2017-08-13T01:12:02.292Z,0
2017-08-13T01:13:02.284Z,0
2017-08-13T01:14:02.249Z,0
2017-08-13T01:15:02.244Z,0
2017-08-13T01:16:02.212Z,0
2017-08-13T01:17:02.188Z,0
2017-08-13T01:18:02.166Z,0
2017-08-13T01:19:02.152Z,0
2017-08-13T01:20:02.127Z,0
2017-08-13T01:21:02.107Z,0
2017-08-13T01:22:02.116Z,0
2017-08-13T01:23:02.057Z,0
2017-08-13T01:24:02.041Z,0
2017-08-13T01:25:02.021Z,0
2017-08-13T01:26:01.993Z,0
2017-08-13T01:27:01.982Z,0
2017-08-13T01:28:01.958Z,0
2017-08-13T01:29:01.928Z,0
2017-08-13T01:30:01.909Z,0
2017-08-13T01:31:01.888Z,0
2017-08-13T01:32:01.870Z,0
2017-08-13T01:33:01.843Z,0
2017-08-13T01:34:01.822Z,0
2017-08-13T01:35:01.505Z,0
2017-08-13T01:36:01.488Z,0
2017-08-13T01:37:01.762Z,0
2017-08-13T01:38:01.741Z,0
2017-08-13T01:39:01.720Z,0
2017-08-13T01:40:01.698Z,0
2017-08-13T01:41:01.676Z,0
2017-08-13T01:42:01.656Z,0
2017-08-13T01:43:01.638Z,0
2017-08-13T01:44:01.620Z,0
2017-08-13T01:45:01.587Z,0
2017-08-13T01:46:01.567Z,0
2017-08-13T01:47:01.257Z,0
2017-08-13T01:48:01.524Z,0
2017-08-13T01:49:01.505Z,0
2017-08-13T01:50:01.485Z,0
2017-08-13T01:51:01.464Z,0
2017-08-13T01:52:01.443Z,0
2017-08-13T01:53:01.423Z,0
2017-08-13T01:54:01.393Z,0
2017-08-13T01:55:01.402Z,0
2017-08-13T01:56:01.355Z,0
2017-08-13T01:57:01.346Z,0
2017-08-13T01:58:01.316Z,0
2017-08-13T01:59:01.297Z,0
2017-08-13T02:00:01.271Z,0
2017-08-13T02:01:01.253Z,0
2017-08-13T02:02:01.232Z,0
2017-08-13T02:03:01.201Z,0
2017-08-13T02:04:01.184Z,0
2017-08-13T02:05:01.169Z,0
2017-08-13T02:06:00.843Z,0
2017-08-13T02:07:01.122Z,0
2017-08-13T02:08:01.097Z,0
2017-08-13T02:09:01.079Z,0
2017-08-13T02:10:01.055Z,0
2017-08-13T02:11:01.035Z,0
2017-08-13T02:12:01.010Z,0
2017-08-13T02:13:00.998Z,0
2017-08-13T02:14:00.971Z,0
2017-08-13T02:15:00.952Z,0
2017-08-13T02:16:00.931Z,0
2017-08-13T02:17:00.612Z,0
2017-08-13T02:18:00.894Z,0
2017-08-13T02:19:00.868Z,0
2017-08-13T02:20:00.843Z,0
2017-08-13T02:21:00.826Z,0
2017-08-13T02:22:00.802Z,0
2017-08-13T02:23:00.782Z,0
2017-08-13T02:24:00.769Z,0
2017-08-13T02:25:00.736Z,0
2017-08-13T02:26:00.422Z,0
2017-08-13T02:27:00.696Z,0
2017-08-13T02:28:00.677Z,0
2017-08-13T02:29:00.652Z,0
2017-08-13T02:30:00.631Z,0
2017-08-13T02:31:00.613Z,0
2017-08-13T02:32:00.290Z,0
2017-08-13T02:33:00.267Z,0
2017-08-13T02:34:00.549Z,0
2017-08-13T02:35:00.228Z,0
2017-08-13T02:36:00.497Z,0
2017-08-13T02:37:00.188Z,0
2017-08-13T02:38:00.168Z,0
2017-08-13T02:39:00.144Z,0
2017-08-13T02:40:00.420Z,0
2017-08-13T02:41:00.396Z,0
2017-08-13T02:42:00.374Z,0
2017-08-13T02:43:00.350Z,0
2017-08-13T02:44:00.379Z,0
2017-08-13T02:45:00.307Z,0
2017-08-13T02:45:59.990Z,0
2017-08-13T02:47:00.281Z,0
2017-08-13T02:48:00.243Z,0
2017-08-13T02:48:59.923Z,0
2017-08-13T02:50:00.202Z,0
2017-08-13T02:51:00.182Z,0
2017-08-13T02:52:00.156Z,0
2017-08-13T02:53:00.143Z,0
2017-08-13T02:54:00.118Z,0
2017-08-13T02:55:00.094Z,0
2017-08-13T02:56:00.079Z,0
2017-08-13T02:57:00.048Z,0
2017-08-13T02:57:59.734Z,0
2017-08-13T02:59:00.010Z,0
2017-08-13T02:59:59.989Z,0
2017-08-13T03:00:59.973Z,0
2017-08-13T03:01:59.945Z,0
2017-08-13T03:02:59.921Z,0
2017-08-13T03:03:59.901Z,0
2017-08-13T03:04:59.915Z,0
2017-08-13T03:05:59.876Z,0
2017-08-13T03:06:59.873Z,0
2017-08-13T03:07:59.596Z,0
2017-08-13T03:08:59.497Z,0
2017-08-13T03:09:59.504Z,0
2017-08-13T03:10:59.774Z,0
2017-08-13T03:12:00.032Z,0
2017-08-13T03:12:59.410Z,0
2017-08-13T03:13:59.684Z,0
2017-08-13T03:14:59.661Z,0
2017-08-13T03:15:59.647Z,0
2017-08-13T03:16:59.622Z,0
2017-08-13T03:17:59.602Z,0
2017-08-13T03:18:59.576Z,0
2017-08-13T03:19:59.560Z,0
2017-08-13T03:20:59.535Z,0
2017-08-13T03:21:59.514Z,0
2017-08-13T03:22:59.193Z,0
2017-08-13T03:23:59.178Z,0
2017-08-13T03:24:59.151Z,0
2017-08-13T03:25:59.426Z,0
2017-08-13T03:26:59.405Z,0
2017-08-13T03:27:59.384Z,0
2017-08-13T03:28:59.363Z,0
2017-08-13T03:29:59.340Z,0
2017-08-13T03:30:59.337Z,0
2017-08-13T03:31:59.306Z,0
2017-08-13T03:32:59.276Z,0
2017-08-13T03:33:59.253Z,4
2017-08-13T03:34:59.233Z,4
2017-08-13T03:35:58.963Z,4
2017-08-13T03:36:59.188Z,0
2017-08-13T03:37:59.173Z,4
2017-08-13T03:38:58.851Z,4
2017-08-13T03:39:58.825Z,4
2017-08-13T03:40:59.100Z,4
2017-08-13T03:41:59.094Z,8
2017-08-13T03:42:59.057Z,8
2017-08-13T03:43:59.037Z,4
2017-08-13T03:44:59.015Z,8
2017-08-13T03:45:59.007Z,12
2017-08-13T03:46:58.987Z,12
2017-08-13T03:47:58.959Z,16
2017-08-13T03:48:58.936Z,16
2017-08-13T03:49:58.909Z,20
2017-08-13T03:50:58.590Z,24
2017-08-13T03:51:58.867Z,24
2017-08-13T03:52:58.850Z,32
2017-08-13T03:53:58.818Z,36
2017-08-13T03:54:58.802Z,40
2017-08-13T03:55:58.780Z,48
2017-08-13T03:56:58.761Z,60
2017-08-13T03:57:58.729Z,68
2017-08-13T03:58:58.727Z,76
2017-08-13T03:59:58.687Z,88
2017-08-13T04:00:58.683Z,100
2017-08-13T04:01:58.651Z,112
2017-08-13T04:02:58.625Z,128
2017-08-13T04:03:58.603Z,140
2017-08-13T04:04:58.587Z,164
2017-08-13T04:05:58.557Z,184
2017-08-13T04:06:58.591Z,208
2017-08-13T04:07:58.520Z,232
2017-08-13T04:08:58.492Z,256
2017-08-13T04:09:58.466Z,276
2017-08-13T04:10:58.452Z,296
2017-08-13T04:11:58.134Z,312
2017-08-13T04:12:58.406Z,336
2017-08-13T04:13:58.388Z,364
2017-08-13T04:14:58.369Z,396
2017-08-13T04:15:58.347Z,432
2017-08-13T04:16:57.442Z,456
2017-08-13T04:17:58.004Z,488
2017-08-13T04:18:58.275Z,528
2017-08-13T04:19:58.260Z,580
2017-08-13T04:20:58.239Z,632
2017-08-13T04:21:58.217Z,680
2017-08-13T04:22:58.196Z,724
2017-08-13T04:23:58.171Z,760
2017-08-13T04:24:58.145Z,804
2017-08-13T04:25:58.129Z,848
2017-08-13T04:26:58.104Z,900
2017-08-13T04:27:58.079Z,928
2017-08-13T04:28:58.066Z,944
2017-08-13T04:29:58.039Z,944
2017-08-13T04:30:58.019Z,952
2017-08-13T04:31:57.996Z,976
2017-08-13T04:32:57.973Z,1004
2017-08-13T04:33:57.952Z,1040
2017-08-13T04:34:57.641Z,1088
2017-08-13T04:35:57.906Z,1120
2017-08-13T04:36:57.892Z,1112
2017-08-13T04:37:57.572Z,1148
2017-08-13T04:38:57.838Z,1244
2017-08-13T04:39:57.824Z,1348
2017-08-13T04:40:57.798Z,1432
2017-08-13T04:41:57.781Z,1544
2017-08-13T04:42:57.758Z,1636
2017-08-13T04:43:57.736Z,1824
2017-08-13T04:44:57.421Z,1996
2017-08-13T04:45:57.692Z,2088
2017-08-13T04:46:57.668Z,2208
2017-08-13T04:47:57.651Z,2392
2017-08-13T04:48:57.631Z,2524
2017-08-13T04:49:57.612Z,2536
2017-08-13T04:50:57.590Z,2644
2017-08-13T04:51:57.564Z,2616
2017-08-13T04:52:57.546Z,2408
2017-08-13T04:53:57.527Z,2200
2017-08-13T04:54:57.504Z,2124
2017-08-13T04:55:57.478Z,2204
2017-08-13T04:56:57.456Z,2396
2017-08-13T04:57:57.437Z,2768
2017-08-13T04:58:57.414Z,3236
2017-08-13T04:59:57.392Z,3632
2017-08-13T05:00:57.367Z,3920
2017-08-13T05:01:57.351Z,4172
2017-08-13T05:02:57.328Z,4388
2017-08-13T05:03:57.305Z,4200
2017-08-13T05:04:57.287Z,3908
2017-08-13T05:05:57.265Z,3856
2017-08-13T05:06:57.236Z,4032
2017-08-13T05:07:57.224Z,4124
2017-08-13T05:08:57.199Z,3860
2017-08-13T05:09:57.180Z,3612
2017-08-13T05:10:57.161Z,3544
2017-08-13T05:11:56.839Z,3536
2017-08-13T05:12:57.116Z,3500
2017-08-13T05:13:56.791Z,3496
2017-08-13T05:14:57.121Z,3500
2017-08-13T05:15:57.044Z,3576
2017-08-13T05:16:57.027Z,3832
2017-08-13T05:17:57.008Z,4152
2017-08-13T05:18:57.001Z,4636
2017-08-13T05:19:56.668Z,5160
2017-08-13T05:20:56.940Z,5732
2017-08-13T05:21:56.927Z,6440
2017-08-13T05:22:56.606Z,6712
2017-08-13T05:23:56.885Z,6588
2017-08-13T05:24:56.857Z,6476
2017-08-13T05:25:56.836Z,6348
2017-08-13T05:26:56.818Z,6240
2017-08-13T05:27:56.800Z,6084
2017-08-13T05:28:56.772Z,6048
2017-08-13T05:29:56.753Z,6128
2017-08-13T05:30:56.734Z,6116
2017-08-13T05:31:56.743Z,5860
2017-08-13T05:32:56.689Z,5812
2017-08-13T05:33:56.663Z,6100
2017-08-13T05:34:56.646Z,6692
2017-08-13T05:35:56.631Z,7556
2017-08-13T05:36:56.612Z,8544
2017-08-13T05:37:56.592Z,9412
2017-08-13T05:38:56.568Z,9776
2017-08-13T05:39:56.543Z,9464
2017-08-13T05:40:56.539Z,9084
2017-08-13T05:41:56.217Z,8988
2017-08-13T05:42:56.478Z,9180
2017-08-13T05:43:56.464Z,9908
2017-08-13T05:44:56.447Z,10392
2017-08-13T05:45:56.424Z,10848
2017-08-13T05:46:56.103Z,10552
2017-08-13T05:47:56.379Z,11176
2017-08-13T05:48:56.362Z,11128
2017-08-13T05:49:55.744Z,10572
2017-08-13T05:50:56.318Z,11008
2017-08-13T05:51:56.293Z,9940
2017-08-13T05:52:56.277Z,9548
2017-08-13T05:53:56.256Z,9828
2017-08-13T05:54:55.943Z,10240
2017-08-13T05:55:56.225Z,9656
2017-08-13T05:56:56.201Z,8012
2017-08-13T05:57:56.180Z,7696
2017-08-13T05:58:56.157Z,7260
2017-08-13T05:59:56.133Z,7408
2017-08-13T06:00:56.116Z,7984
2017-08-13T06:01:56.098Z,8692
2017-08-13T06:02:56.080Z,10928
2017-08-13T06:03:56.069Z,13700
2017-08-13T06:04:56.045Z,16032
2017-08-13T06:05:56.018Z,12988
2017-08-13T06:06:56.001Z,8772
2017-08-13T06:07:55.976Z,8884
2017-08-13T06:08:55.956Z,9268
2017-08-13T06:09:55.942Z,9956
2017-08-13T06:10:55.915Z,10636
2017-08-13T06:11:55.904Z,11204
2017-08-13T06:12:55.881Z,12192
2017-08-13T06:13:55.560Z,18176
2017-08-13T06:14:55.843Z,13060
2017-08-13T06:15:55.823Z,13832
2017-08-13T06:16:55.810Z,21920
2017-08-13T06:17:55.783Z,14344
2017-08-13T06:18:55.769Z,20864
2017-08-13T06:19:55.743Z,16128
2017-08-13T06:20:55.732Z,27296
2017-08-13T06:21:55.709Z,14540
2017-08-13T06:22:55.688Z,14940
2017-08-13T06:23:55.679Z,15640
2017-08-13T06:24:55.658Z,16144
2017-08-13T06:25:55.634Z,31584
2017-08-13T06:26:55.616Z,28320
2017-08-13T06:27:55.596Z,17664
2017-08-13T06:28:55.582Z,15764
2017-08-13T06:29:55.556Z,14624
2017-08-13T06:30:55.549Z,16268
2017-08-13T06:31:55.522Z,14928
2017-08-13T06:32:55.506Z,14948
2017-08-13T06:33:55.197Z,15240
2017-08-13T06:34:55.478Z,15508
2017-08-13T06:35:55.472Z,16880
2017-08-13T06:36:55.444Z,21824
2017-08-13T06:37:55.426Z,26368
2017-08-13T06:38:55.413Z,15204
2017-08-13T06:39:55.399Z,19040
2017-08-13T06:40:55.376Z,14604
2017-08-13T06:41:55.356Z,14984
2017-08-13T06:42:55.336Z,14524
2017-08-13T06:43:55.319Z,13312
2017-08-13T06:44:55.301Z,13080
2017-08-13T06:45:55.282Z,19072
2017-08-13T06:46:55.262Z,13340
2017-08-13T06:47:55.258Z,13036
2017-08-13T06:48:54.938Z,13060
2017-08-13T06:49:55.210Z,13128
2017-08-13T06:50:54.901Z,13092
2017-08-13T06:51:55.176Z,13292
2017-08-13T06:52:55.168Z,13872
2017-08-13T06:53:55.144Z,13696
2017-08-13T06:54:54.830Z,13052
2017-08-13T06:55:54.816Z,12796
2017-08-13T06:56:55.090Z,12200
2017-08-13T06:57:54.773Z,12340
2017-08-13T06:58:54.759Z,12440
2017-08-13T06:59:55.066Z,12356
2017-08-13T07:00:54.725Z,12020
2017-08-13T07:01:55.025Z,12608
2017-08-13T07:02:54.683Z,13304
2017-08-13T07:03:54.963Z,13436
2017-08-13T07:04:54.943Z,15252
2017-08-13T07:05:54.930Z,14416
2017-08-13T07:06:54.911Z,17232
2017-08-13T07:07:54.895Z,23776
2017-08-13T07:08:54.574Z,37408
2017-08-13T07:09:54.854Z,54272
2017-08-13T07:10:54.885Z,59680
2017-08-13T07:11:54.822Z,49824
2017-08-13T07:12:54.800Z,23808
2017-08-13T07:13:54.792Z,9272
2017-08-13T07:14:54.761Z,9108
2017-08-13T07:15:54.752Z,32288
2017-08-13T07:16:54.732Z,31712
2017-08-13T07:17:54.720Z,13672
2017-08-13T07:18:54.697Z,18816
2017-08-13T07:19:54.686Z,29536
2017-08-13T07:20:54.662Z,11684
2017-08-13T07:21:54.654Z,21088
2017-08-13T07:22:54.635Z,19520
2017-08-13T07:23:54.617Z,28160
2017-08-13T07:24:54.599Z,24672
2017-08-13T07:25:54.585Z,28640
2017-08-13T07:26:54.565Z,33856
2017-08-13T07:27:54.547Z,34496
2017-08-13T07:28:54.539Z,35520
2017-08-13T07:29:54.518Z,34080
2017-08-13T07:30:54.505Z,32768
2017-08-13T07:31:54.483Z,33152
2017-08-13T07:32:54.472Z,35392
2017-08-13T07:33:54.456Z,36544
2017-08-13T07:34:54.443Z,37600
2017-08-13T07:35:54.423Z,38848
2017-08-13T07:36:54.415Z,39520
2017-08-13T07:37:54.400Z,41568
2017-08-13T07:38:54.092Z,37760
2017-08-13T07:39:54.366Z,24192
2017-08-13T07:40:54.362Z,28672
2017-08-13T07:41:54.048Z,40640
2017-08-13T07:42:54.334Z,44608
2017-08-13T07:43:54.329Z,45280
2017-08-13T07:44:54.313Z,45888
2017-08-13T07:45:54.291Z,45792
2017-08-13T07:46:53.983Z,46176
2017-08-13T07:47:54.270Z,34624
2017-08-13T07:48:54.257Z,25600
2017-08-13T07:49:54.243Z,22208
2017-08-13T07:50:54.231Z,28320
2017-08-13T07:51:54.219Z,37888
2017-08-13T07:52:54.209Z,37504
2017-08-13T07:53:54.191Z,24288
2017-08-13T07:54:54.175Z,28576
2017-08-13T07:55:54.163Z,45760
2017-08-13T07:56:53.859Z,47104
2017-08-13T07:57:53.544Z,47968
2017-08-13T07:58:53.903Z,48064
2017-08-13T07:59:54.117Z,47744
2017-08-13T08:00:53.809Z,46688
2017-08-13T08:01:53.800Z,45728
2017-08-13T08:02:53.787Z,46624
2017-08-13T08:03:53.770Z,47872
2017-08-13T08:04:54.062Z,50336
2017-08-13T08:05:54.044Z,52352
2017-08-13T08:06:54.029Z,50656
2017-08-13T08:07:54.037Z,52192
2017-08-13T08:08:54.005Z,58240
2017-08-13T08:09:53.999Z,56352
2017-08-13T08:10:53.703Z,56864
2017-08-13T08:11:53.972Z,61792
2017-08-13T08:12:53.964Z,61536
2017-08-13T08:13:53.954Z,57728
2017-08-13T08:14:53.939Z,32352
2017-08-13T08:15:53.946Z,19904
2017-08-13T08:16:53.923Z,19616
2017-08-13T08:17:53.911Z,29312
2017-08-13T08:18:53.896Z,18816
2017-08-13T08:19:53.599Z,23424
2017-08-13T08:20:53.882Z,14156
2017-08-13T08:21:53.570Z,23072
2017-08-13T08:22:53.854Z,12084
2017-08-13T08:23:53.858Z,10052
2017-08-13T08:24:53.838Z,9724
2017-08-13T08:25:53.523Z,9980
2017-08-13T08:26:53.518Z,10828
2017-08-13T08:27:53.798Z,12264
2017-08-13T08:28:53.943Z,47456
2017-08-13T08:29:53.765Z,60736
2017-08-13T08:30:53.751Z,62112
2017-08-13T08:31:53.738Z,62848
2017-08-13T08:32:53.732Z,60608
2017-08-13T08:33:53.724Z,59232
2017-08-13T08:34:53.702Z,60352
2017-08-13T08:35:53.391Z,57856
2017-08-13T08:36:53.684Z,55360
2017-08-13T08:37:53.661Z,57824
2017-08-13T08:38:53.646Z,59936
2017-08-13T08:39:53.352Z,60800
2017-08-13T08:40:53.631Z,59680
2017-08-13T08:41:53.321Z,58784
2017-08-13T08:42:53.605Z,57824
2017-08-13T08:43:53.591Z,58880
2017-08-13T08:44:53.581Z,58784
2017-08-13T08:45:53.568Z,60096
2017-08-13T08:46:53.556Z,63232
2017-08-13T08:47:53.552Z,65216
2017-08-13T08:48:53.541Z,65120
2017-08-13T08:49:53.232Z,63904
2017-08-13T08:50:53.520Z,64928
2017-08-13T08:51:53.510Z,64064
2017-08-13T08:52:53.204Z,67136
2017-08-13T08:53:52.898Z,67712
2017-08-13T08:54:53.183Z,69024
2017-08-13T08:55:53.468Z,66496
2017-08-13T08:56:53.465Z,24128
2017-08-13T08:57:53.162Z,40928
2017-08-13T08:58:53.448Z,16440
2017-08-13T08:59:53.437Z,15596
2017-08-13T09:00:53.126Z,15400
2017-08-13T09:01:53.326Z,15260
2017-08-13T09:02:53.407Z,15476
2017-08-13T09:03:53.392Z,15124
2017-08-13T09:04:53.379Z,13592
2017-08-13T09:05:53.375Z,12472
2017-08-13T09:06:53.368Z,11720
2017-08-13T09:07:53.359Z,11092
2017-08-13T09:08:53.340Z,11208
2017-08-13T09:09:53.325Z,11912
2017-08-13T09:10:53.313Z,12968
2017-08-13T09:11:53.297Z,14028
2017-08-13T09:12:53.285Z,14436
2017-08-13T09:13:53.276Z,14924
2017-08-13T09:14:52.963Z,15500
2017-08-13T09:15:52.961Z,16008
2017-08-13T09:16:53.238Z,16864
2017-08-13T09:17:52.921Z,18656
2017-08-13T09:18:53.200Z,68320
2017-08-13T09:19:53.186Z,71168
2017-08-13T09:20:53.171Z,70784
2017-08-13T09:21:53.162Z,73408
2017-08-13T09:22:53.149Z,73088
2017-08-13T09:23:53.128Z,73888
2017-08-13T09:24:53.128Z,73312
2017-08-13T09:25:53.105Z,72128
2017-08-13T09:26:53.090Z,73632
2017-08-13T09:27:52.488Z,74368
2017-08-13T09:28:53.064Z,75840
2017-08-13T09:29:53.055Z,77472
2017-08-13T09:30:53.040Z,71968
2017-08-13T09:31:52.739Z,71136
2017-08-13T09:32:52.721Z,70240
2017-08-13T09:33:53.011Z,69824
2017-08-13T09:34:53.008Z,68768
2017-08-13T09:35:52.694Z,71072
2017-08-13T09:36:52.691Z,70208
2017-08-13T09:37:52.977Z,73056
2017-08-13T09:38:52.970Z,72256
2017-08-13T09:39:52.959Z,75168
2017-08-13T09:40:52.944Z,74784
2017-08-13T09:41:52.941Z,77536
2017-08-13T09:42:52.933Z,82944
2017-08-13T09:43:52.929Z,85376
2017-08-13T09:44:52.913Z,86144
2017-08-13T09:45:52.904Z,90720
2017-08-13T09:46:52.898Z,95424
2017-08-13T09:47:52.596Z,92192
2017-08-13T09:48:52.884Z,87712
2017-08-13T09:49:52.886Z,49792
2017-08-13T09:50:52.876Z,36000
2017-08-13T09:51:52.868Z,31968
2017-08-13T09:52:52.560Z,29120
2017-08-13T09:53:52.861Z,27552
2017-08-13T09:54:52.842Z,26880
2017-08-13T09:55:52.831Z,27392
2017-08-13T09:56:52.843Z,27584
2017-08-13T09:57:52.822Z,83168
2017-08-13T09:58:52.811Z,44320
2017-08-13T09:59:52.798Z,87264
2017-08-13T10:00:52.793Z,86528
2017-08-13T10:01:52.782Z,85536
2017-08-13T10:02:52.478Z,57536
2017-08-13T10:03:52.477Z,79520
2017-08-13T10:04:52.752Z,73856
2017-08-13T10:05:52.734Z,24960
2017-08-13T10:06:52.727Z,19616
2017-08-13T10:07:52.725Z,16192
2017-08-13T10:08:52.709Z,14224
2017-08-13T10:09:52.701Z,12984
2017-08-13T10:10:52.699Z,12096
2017-08-13T10:11:52.676Z,11576
2017-08-13T10:12:52.671Z,11576
2017-08-13T10:13:52.810Z,11912
2017-08-13T10:14:52.643Z,12676
2017-08-13T10:15:52.633Z,14072
2017-08-13T10:16:52.616Z,15784
2017-08-13T10:17:52.609Z,17952
2017-08-13T10:18:52.616Z,20064
2017-08-13T10:19:52.581Z,21920
2017-08-13T10:20:52.570Z,23136
2017-08-13T10:21:52.687Z,23968
2017-08-13T10:22:52.539Z,24256
2017-08-13T10:23:52.604Z,25472
2017-08-13T10:24:52.615Z,26144
2017-08-13T10:25:52.495Z,24288
2017-08-13T10:26:52.493Z,24640
2017-08-13T10:27:52.475Z,24864
2017-08-13T10:28:52.454Z,25120
2017-08-13T10:29:52.579Z,25376
2017-08-13T10:30:52.455Z,25472
2017-08-13T10:31:52.417Z,25472
2017-08-13T10:32:52.404Z,25216
2017-08-13T10:33:52.518Z,24704
2017-08-13T10:34:52.395Z,24128
2017-08-13T10:35:52.406Z,23680
2017-08-13T10:36:52.344Z,23072
2017-08-13T10:37:52.333Z,22176
2017-08-13T10:38:52.315Z,21056
2017-08-13T10:39:52.434Z,19456
2017-08-13T10:40:51.992Z,17520
2017-08-13T10:41:52.275Z,15872
2017-08-13T10:42:51.972Z,14336
2017-08-13T10:43:53.052Z,13548
2017-08-13T10:44:52.416Z,13568
2017-08-13T10:45:51.920Z,14340
2017-08-13T10:46:51.908Z,15956
2017-08-13T10:47:52.184Z,15972
2017-08-13T10:48:51.882Z,15268
2017-08-13T10:49:51.858Z,14812
2017-08-13T10:50:51.841Z,14492
2017-08-13T10:51:52.123Z,14268
2017-08-13T10:52:51.813Z,13976
2017-08-13T10:53:52.097Z,13824
2017-08-13T10:54:51.187Z,13832
2017-08-13T10:55:51.767Z,13876
2017-08-13T10:56:51.456Z,13840
2017-08-13T10:57:52.039Z,13788
2017-08-13T10:58:52.024Z,13736
2017-08-13T10:59:51.714Z,13712
2017-08-13T11:00:52.046Z,13772
2017-08-13T11:01:51.968Z,13788
2017-08-13T11:02:51.948Z,13808
2017-08-13T11:03:51.638Z,13940
2017-08-13T11:04:51.915Z,14148
2017-08-13T11:05:51.902Z,14528
2017-08-13T11:06:51.588Z,14900
2017-08-13T11:07:51.872Z,15212
2017-08-13T11:08:51.858Z,15656
2017-08-13T11:09:51.839Z,16236
2017-08-13T11:10:51.826Z,17012
2017-08-13T11:11:51.807Z,17880
2017-08-13T11:12:51.656Z,18140
2017-08-13T11:13:51.774Z,18508
2017-08-13T11:14:51.164Z,19232
2017-08-13T11:15:52.009Z,21408
2017-08-13T11:16:51.723Z,23520
2017-08-13T11:17:51.703Z,26016
2017-08-13T11:18:51.693Z,24992
2017-08-13T11:19:51.675Z,23872
2017-08-13T11:20:51.367Z,21056
2017-08-13T11:21:51.366Z,20576
2017-08-13T11:22:51.636Z,19936
2017-08-13T11:23:51.616Z,19232
2017-08-13T11:24:51.597Z,18688
2017-08-13T11:25:51.580Z,18528
2017-08-13T11:26:51.570Z,18560
2017-08-13T11:27:51.257Z,18848
2017-08-13T11:28:51.539Z,19680
2017-08-13T11:29:51.526Z,21824
2017-08-13T11:30:51.508Z,25568
2017-08-13T11:31:51.492Z,29920
2017-08-13T11:32:51.482Z,32832
2017-08-13T11:33:51.468Z,34880
2017-08-13T11:34:51.449Z,36704
2017-08-13T11:35:51.436Z,37824
2017-08-13T11:36:52.620Z,37152
2017-08-13T11:37:53.599Z,35456
2017-08-13T11:38:53.432Z,34624
2017-08-13T11:39:51.379Z,34720
2017-08-13T11:40:51.368Z,35168
2017-08-13T11:41:51.344Z,35040
2017-08-13T11:42:51.334Z,34336
2017-08-13T11:43:51.322Z,31168
2017-08-13T11:44:51.301Z,26944
2017-08-13T11:45:51.286Z,20864
2017-08-13T11:46:51.280Z,15404
2017-08-13T11:47:51.256Z,12528
2017-08-13T11:48:51.246Z,11312
2017-08-13T11:49:51.237Z,10596
2017-08-13T11:50:51.218Z,10024
2017-08-13T11:51:51.208Z,9740
2017-08-13T11:52:51.192Z,9728
2017-08-13T11:53:51.175Z,9784
2017-08-13T11:54:51.162Z,10028
2017-08-13T11:55:51.174Z,10432
2017-08-13T11:56:51.134Z,11060
2017-08-13T11:57:51.115Z,11932
2017-08-13T11:58:50.808Z,13156
2017-08-13T11:59:51.096Z,13948
2017-08-13T12:00:51.070Z,15032
2017-08-13T12:01:51.054Z,16200
2017-08-13T12:02:51.044Z,17760
2017-08-13T12:03:51.035Z,19552
2017-08-13T12:04:51.009Z,21408
2017-08-13T12:05:51.001Z,22976
2017-08-13T12:06:50.985Z,24288
2017-08-13T12:07:50.669Z,25760
2017-08-13T12:08:50.957Z,27360
2017-08-13T12:09:50.637Z,28608
2017-08-13T12:10:50.913Z,29536
2017-08-13T12:11:50.904Z,30368
2017-08-13T12:12:50.894Z,31360
2017-08-13T12:13:50.872Z,32704
2017-08-13T12:14:50.907Z,34368
2017-08-13T12:15:50.851Z,36096
2017-08-13T12:16:50.830Z,37344
2017-08-13T12:17:50.521Z,39328
2017-08-13T12:18:50.800Z,40416
2017-08-13T12:19:50.789Z,41088
2017-08-13T12:20:50.771Z,40832
2017-08-13T12:21:50.472Z,40640
2017-08-13T12:22:50.756Z,39488
2017-08-13T12:23:50.734Z,39136
2017-08-13T12:24:50.728Z,38496
2017-08-13T12:25:50.709Z,37408
2017-08-13T12:26:50.693Z,36256
2017-08-13T12:27:50.682Z,34624
2017-08-13T12:28:50.667Z,33824
2017-08-13T12:29:50.357Z,32864
2017-08-13T12:30:50.638Z,31360
2017-08-13T12:31:50.636Z,32736
2017-08-13T12:32:50.613Z,36320
2017-08-13T12:33:50.602Z,37152
2017-08-13T12:34:50.298Z,37952
2017-08-13T12:35:50.282Z,38912
2017-08-13T12:36:50.566Z,38016
2017-08-13T12:37:50.566Z,36320
2017-08-13T12:38:50.538Z,35584
2017-08-13T12:39:50.525Z,35136
2017-08-13T12:40:50.222Z,34176
2017-08-13T12:41:50.208Z,32448
2017-08-13T12:42:50.487Z,30752
2017-08-13T12:43:50.477Z,29664
2017-08-13T12:44:50.461Z,29440
2017-08-13T12:45:50.454Z,29888
2017-08-13T12:46:50.437Z,31168
2017-08-13T12:47:50.131Z,33504
2017-08-13T12:48:50.413Z,32512
2017-08-13T12:49:50.405Z,31712
2017-08-13T12:50:50.417Z,30048
2017-08-13T12:51:50.376Z,29536
2017-08-13T12:52:50.360Z,30144
2017-08-13T12:53:50.361Z,32128
2017-08-13T12:54:50.344Z,30848
2017-08-13T12:55:50.332Z,29888
2017-08-13T12:56:50.321Z,29440
2017-08-13T12:57:49.713Z,28928
2017-08-13T12:58:49.992Z,29792
2017-08-13T12:59:50.280Z,29152
2017-08-13T13:00:50.094Z,29440
2017-08-13T13:01:50.095Z,28960
2017-08-13T13:02:51.128Z,29632
2017-08-13T13:03:50.227Z,31072
2017-08-13T13:04:50.208Z,33216
2017-08-13T13:05:50.201Z,34016
2017-08-13T13:06:50.181Z,34304
2017-08-13T13:07:49.876Z,34112
2017-08-13T13:08:49.862Z,33760
2017-08-13T13:09:49.850Z,34016
2017-08-13T13:10:49.835Z,34656
2017-08-13T13:11:49.825Z,36352
2017-08-13T13:12:49.816Z,37664
2017-08-13T13:13:49.798Z,37568
2017-08-13T13:14:49.786Z,37536
2017-08-13T13:15:49.781Z,37568
2017-08-13T13:16:49.766Z,37696
2017-08-13T13:17:49.754Z,37600
2017-08-13T13:18:49.763Z,37152
2017-08-13T13:19:49.728Z,36608
2017-08-13T13:20:49.716Z,35392
2017-08-13T13:21:49.703Z,34720
2017-08-13T13:22:49.687Z,34976
2017-08-13T13:23:49.674Z,34816
2017-08-13T13:24:49.670Z,34464
2017-08-13T13:25:49.662Z,34528
2017-08-13T13:26:49.954Z,34944
2017-08-13T13:27:49.931Z,33504